Fdny M-4 — WDF9256 — position and weather

sailwx.info

Track history (hours):
 
Tides and Currents Weather Stations Pressure Air Temp Water Temp Dewpoint Dewpoint Depression Visibility Wind Speed Wind Dir Waves Ship Positions

Fdny M-4

Owner: NEW YORK CITY FIRE DEPT, BROOKLYN, NY. More information available from US FCC via Universal Licensing System.

Last reported at 2018-Apr-26 17:35 UTC. Time now 2018-Apr-27 02:24 UTC.
Position N 40°42' W 073°58'.

MMSI: 367503280.

Date/timePositionNaut miles runAvg speedWind from/ knotsBaromVisibWave heightAir tempDewpointWater temp
2018-Apr-26 17:35N 40°42' W 073°58'0 2.1
2018-Apr-26 17:31N 40°42' W 073°58'3 0.5
2018-Apr-26 12:18N 40°45' W 073°58'3 0.1
2018-Apr-25 14:48N 40°42' W 073°58'311.1
2018-Apr-25 14:30N 40°43' W 074°03'3 5.1
2018-Apr-25 14:00N 40°40' W 074°01'0 0.0
2018-Apr-25 13:30N 40°40' W 074°01'0 0.3
2018-Apr-25 13:01N 40°40' W 074°01'3 0.2
2018-Apr-24 21:46N 40°42' W 073°58'2 1.8
2018-Apr-24 20:40N 40°44' W 073°58'2 0.1
2018-Apr-23 17:52N 40°42' W 073°58'7 2.2
2018-Apr-23 14:49N 40°36' W 074°02'7 3.2
2018-Apr-23 12:42N 40°42' W 073°58'  
2018-Apr-21 01:57N 40°42' W 073°58'11 8.3
2018-Apr-21 00:40N 40°53' W 073°56'314.5
2018-Apr-21 00:30N 40°50' W 073°57'1123.5
2018-Apr-21 00:00N 40°40' W 074°02'3 6.1
2018-Apr-20 23:30N 40°37' W 074°03'611.3
2018-Apr-20 23:01N 40°42' W 074°00'2 0.5
2018-Apr-20 20:04N 40°42' W 073°58'0 0.0
2018-Apr-20 20:00N 40°42' W 073°58'0 0.0
2018-Apr-20 19:30N 40°42' W 073°58'0 0.0
2018-Apr-19 17:41N 40°42' W 073°58'1013.0
2018-Apr-19 16:54N 40°52' W 073°56'1025.9
2018-Apr-19 16:30N 40°43' W 074°01'2 1.8
2018-Apr-19 15:11N 40°42' W 073°58'0 0.5
2018-Apr-19 15:00N 40°42' W 073°58'10 3.9
2018-Apr-19 12:27N 40°48' W 073°48'921.0
2018-Apr-19 12:01N 40°43' W 073°58'1 0.1
2018-Apr-18 14:43N 40°42' W 073°58'0 0.0
2018-Apr-18 14:31N 40°42' W 073°58'0 0.0
2018-Apr-18 14:00N 40°42' W 073°58'0 0.0
2018-Apr-18 13:30N 40°42' W 073°58'0 0.0
2018-Apr-18 13:00N 40°42' W 073°58'0 0.0
2018-Apr-18 12:30N 40°42' W 073°58'  
Track history (hours):
 
Tides and Currents Weather Stations Pressure Air Temp Water Temp Dewpoint Dewpoint Depression Visibility Wind Speed Wind Dir Waves Ship Positions

Fdny M-4

Owner: NEW YORK CITY FIRE DEPT, BROOKLYN, NY. More information available from US FCC via Universal Licensing System.

Last reported at 2018-Apr-26 17:35 UTC. Time now 2018-Apr-27 02:24 UTC.
Position N 40°42' W 073°58'.

MMSI: 367503280.

Date/timePositionNaut miles runAvg speedWind from/ knotsBaromVisibWave heightAir tempDewpointWater temp
2018-Apr-26 17:35N 40°42' W 073°58'0 2.1
2018-Apr-26 17:31N 40°42' W 073°58'3 0.5
2018-Apr-26 12:18N 40°45' W 073°58'3 0.1
2018-Apr-25 14:48N 40°42' W 073°58'311.1
2018-Apr-25 14:30N 40°43' W 074°03'3 5.1
2018-Apr-25 14:00N 40°40' W 074°01'0 0.0
2018-Apr-25 13:30N 40°40' W 074°01'0 0.3
2018-Apr-25 13:01N 40°40' W 074°01'3 0.2
2018-Apr-24 21:46N 40°42' W 073°58'2 1.8
2018-Apr-24 20:40N 40°44' W 073°58'2 0.1
2018-Apr-23 17:52N 40°42' W 073°58'7 2.2
2018-Apr-23 14:49N 40°36' W 074°02'7 3.2
2018-Apr-23 12:42N 40°42' W 073°58'  
2018-Apr-21 01:57N 40°42' W 073°58'11 8.3
2018-Apr-21 00:40N 40°53' W 073°56'314.5
2018-Apr-21 00:30N 40°50' W 073°57'1123.5
2018-Apr-21 00:00N 40°40' W 074°02'3 6.1
2018-Apr-20 23:30N 40°37' W 074°03'611.3
2018-Apr-20 23:01N 40°42' W 074°00'2 0.5
2018-Apr-20 20:04N 40°42' W 073°58'0 0.0
2018-Apr-20 20:00N 40°42' W 073°58'0 0.0
2018-Apr-20 19:30N 40°42' W 073°58'0 0.0
2018-Apr-19 17:41N 40°42' W 073°58'1013.0
2018-Apr-19 16:54N 40°52' W 073°56'1025.9
2018-Apr-19 16:30N 40°43' W 074°01'2 1.8
2018-Apr-19 15:11N 40°42' W 073°58'0 0.5
2018-Apr-19 15:00N 40°42' W 073°58'10 3.9
2018-Apr-19 12:27N 40°48' W 073°48'921.0
2018-Apr-19 12:01N 40°43' W 073°58'1 0.1
2018-Apr-18 14:43N 40°42' W 073°58'0 0.0
2018-Apr-18 14:31N 40°42' W 073°58'0 0.0
2018-Apr-18 14:00N 40°42' W 073°58'0 0.0
2018-Apr-18 13:30N 40°42' W 073°58'0 0.0
2018-Apr-18 13:00N 40°42' W 073°58'0 0.0
2018-Apr-18 12:30N 40°42' W 073°58'  

Dump ship's entire track history